sensor_id;sensor_type;location;lat;lon;timestamp;temperature;humidity
70593;DHT22;58294;42.988;20.338;2023-03-12T00:01:29;154.40;2252.80
70593;DHT22;58294;42.988;20.338;2023-03-12T00:03:57;154.40;2252.80
70593;DHT22;58294;42.988;20.338;2023-03-12T00:06:23;154.40;2252.80
70593;DHT22;58294;42.988;20.338;2023-03-12T00:08:49;154.40;2252.80
70593;DHT22;58294;42.988;20.338;2023-03-12T00:11:15;154.30;2252.80
70593;DHT22;58294;42.988;20.338;2023-03-12T00:13:41;154.30;2252.80
70593;DHT22;58294;42.988;20.338;2023-03-12T00:16:12;154.30;2252.80
70593;DHT22;58294;42.988;20.338;2023-03-12T00:18:38;154.30;2252.80
70593;DHT22;58294;42.988;20.338;2023-03-12T00:21:04;154.20;2252.80
70593;DHT22;58294;42.988;20.338;2023-03-12T00:23:30;154.20;2252.80
70593;DHT22;58294;42.988;20.338;2023-03-12T00:26:00;154.20;2252.80
70593;DHT22;58294;42.988;20.338;2023-03-12T00:28:25;154.20;2252.80
70593;DHT22;58294;42.988;20.338;2023-03-12T00:30:51;154.20;2252.80
70593;DHT22;58294;42.988;20.338;2023-03-12T00:33:17;154.20;2252.80
70593;DHT22;58294;42.988;20.338;2023-03-12T00:35:43;154.20;2252.80
70593;DHT22;58294;42.988;20.338;2023-03-12T00:38:08;154.10;2252.80
70593;DHT22;58294;42.988;20.338;2023-03-12T00:40:34;154.00;2252.80
70593;DHT22;58294;42.988;20.338;2023-03-12T00:43:00;154.00;2252.80
70593;DHT22;58294;42.988;20.338;2023-03-12T00:45:25;153.90;2252.80
70593;DHT22;58294;42.988;20.338;2023-03-12T00:47:51;153.90;2252.80
70593;DHT22;58294;42.988;20.338;2023-03-12T00:50:16;153.80;2252.80
70593;DHT22;58294;42.988;20.338;2023-03-12T00:52:42;153.70;2252.80
70593;DHT22;58294;42.988;20.338;2023-03-12T00:55:08;153.60;2252.80
70593;DHT22;58294;42.988;20.338;2023-03-12T00:57:33;153.60;2252.80
70593;DHT22;58294;42.988;20.338;2023-03-12T00:59:59;153.60;2252.80
70593;DHT22;58294;42.988;20.338;2023-03-12T01:02:24;128.90;2252.80
70593;DHT22;58294;42.988;20.338;2023-03-12T01:04:50;128.90;2252.80
70593;DHT22;58294;42.988;20.338;2023-03-12T01:07:15;128.80;2252.80
70593;DHT22;58294;42.988;20.338;2023-03-12T01:09:41;128.70;2252.80
70593;DHT22;58294;42.988;20.338;2023-03-12T01:12:07;128.70;2252.80
70593;DHT22;58294;42.988;20.338;2023-03-12T01:14:32;128.60;2252.80
70593;DHT22;58294;42.988;20.338;2023-03-12T01:16:58;128.50;2252.80
70593;DHT22;58294;42.988;20.338;2023-03-12T01:19:23;128.50;2252.80
70593;DHT22;58294;42.988;20.338;2023-03-12T01:21:49;128.40;2252.80
70593;DHT22;58294;42.988;20.338;2023-03-12T01:24:15;128.40;2252.80
70593;DHT22;58294;42.988;20.338;2023-03-12T01:26:40;128.40;2252.80
70593;DHT22;58294;42.988;20.338;2023-03-12T01:29:06;128.30;2252.80
70593;DHT22;58294;42.988;20.338;2023-03-12T01:31:31;128.30;2252.80
70593;DHT22;58294;42.988;20.338;2023-03-12T01:33:57;128.30;2252.80
70593;DHT22;58294;42.988;20.338;2023-03-12T01:36:26;128.40;2252.80
70593;DHT22;58294;42.988;20.338;2023-03-12T01:38:53;128.40;2252.80
70593;DHT22;58294;42.988;20.338;2023-03-12T01:41:19;128.40;2252.80
70593;DHT22;58294;42.988;20.338;2023-03-12T01:43:45;128.50;2252.80
70593;DHT22;58294;42.988;20.338;2023-03-12T01:46:22;128.50;2252.80
70593;DHT22;58294;42.988;20.338;2023-03-12T01:49:08;128.60;2252.80
70593;DHT22;58294;42.988;20.338;2023-03-12T01:54:19;128.60;2252.80
70593;DHT22;58294;42.988;20.338;2023-03-12T01:56:47;128.60;2252.80
70593;DHT22;58294;42.988;20.338;2023-03-12T01:59:15;128.60;2252.80
70593;DHT22;58294;42.988;20.338;2023-03-12T02:01:41;128.70;2252.80
70593;DHT22;58294;42.988;20.338;2023-03-12T02:04:07;128.60;2252.80
70593;DHT22;58294;42.988;20.338;2023-03-12T02:06:39;128.60;2252.80
70593;DHT22;58294;42.988;20.338;2023-03-12T02:09:08;128.60;2252.80
70593;DHT22;58294;42.988;20.338;2023-03-12T02:11:33;128.70;2252.80
70593;DHT22;58294;42.988;20.338;2023-03-12T02:13:59;128.70;2252.80
70593;DHT22;58294;42.988;20.338;2023-03-12T02:16:25;128.80;2252.80
70593;DHT22;58294;42.988;20.338;2023-03-12T02:18:50;128.70;2252.80
70593;DHT22;58294;42.988;20.338;2023-03-12T02:21:19;128.70;2252.80
70593;DHT22;58294;42.988;20.338;2023-03-12T02:26:29;128.80;2252.80
70593;DHT22;58294;42.988;20.338;2023-03-12T02:28:55;128.80;2252.80
70593;DHT22;58294;42.988;20.338;2023-03-12T02:31:22;128.80;2252.80
70593;DHT22;58294;42.988;20.338;2023-03-12T02:33:50;128.80;2252.80
70593;DHT22;58294;42.988;20.338;2023-03-12T02:36:18;128.80;2252.80
70593;DHT22;58294;42.988;20.338;2023-03-12T02:38:50;128.80;2252.80
70593;DHT22;58294;42.988;20.338;2023-03-12T02:41:29;128.80;2252.80
70593;DHT22;58294;42.988;20.338;2023-03-12T02:44:00;128.80;2252.80
70593;DHT22;58294;42.988;20.338;2023-03-12T02:46:26;128.80;2252.80
70593;DHT22;58294;42.988;20.338;2023-03-12T02:48:53;128.80;2252.80
70593;DHT22;58294;42.988;20.338;2023-03-12T02:51:19;128.90;2252.80
70593;DHT22;58294;42.988;20.338;2023-03-12T02:53:45;128.90;2252.80
70593;DHT22;58294;42.988;20.338;2023-03-12T02:56:10;128.90;2252.80
70593;DHT22;58294;42.988;20.338;2023-03-12T02:58:36;128.90;2252.80
70593;DHT22;58294;42.988;20.338;2023-03-12T03:01:02;128.90;2252.80
70593;DHT22;58294;42.988;20.338;2023-03-12T03:03:28;128.90;2252.80
70593;DHT22;58294;42.988;20.338;2023-03-12T03:05:53;128.90;2252.80
70593;DHT22;58294;42.988;20.338;2023-03-12T03:08:19;128.90;2252.80
70593;DHT22;58294;42.988;20.338;2023-03-12T03:10:44;128.90;2252.80
70593;DHT22;58294;42.988;20.338;2023-03-12T03:13:10;128.90;2252.80
70593;DHT22;58294;42.988;20.338;2023-03-12T03:15:35;128.90;2252.80
70593;DHT22;58294;42.988;20.338;2023-03-12T03:18:03;128.90;2252.80
70593;DHT22;58294;42.988;20.338;2023-03-12T03:20:29;153.60;2252.80
70593;DHT22;58294;42.988;20.338;2023-03-12T03:22:54;153.60;2252.80
70593;DHT22;58294;42.988;20.338;2023-03-12T03:25:20;128.90;2252.80
70593;DHT22;58294;42.988;20.338;2023-03-12T03:27:47;153.60;2252.80
70593;DHT22;58294;42.988;20.338;2023-03-12T03:30:13;153.60;2252.80
70593;DHT22;58294;42.988;20.338;2023-03-12T03:32:38;153.60;2252.80
70593;DHT22;58294;42.988;20.338;2023-03-12T03:35:04;128.90;2252.80
70593;DHT22;58294;42.988;20.338;2023-03-12T03:37:30;128.90;2252.80
70593;DHT22;58294;42.988;20.338;2023-03-12T03:39:55;128.90;2252.80
70593;DHT22;58294;42.988;20.338;2023-03-12T03:42:21;128.90;2252.80
70593;DHT22;58294;42.988;20.338;2023-03-12T03:44:46;153.60;2252.80
70593;DHT22;58294;42.988;20.338;2023-03-12T03:47:12;153.60;2252.80
70593;DHT22;58294;42.988;20.338;2023-03-12T03:49:37;153.60;2252.80
70593;DHT22;58294;42.988;20.338;2023-03-12T03:52:03;153.60;2252.80
70593;DHT22;58294;42.988;20.338;2023-03-12T03:54:29;153.60;2252.80
70593;DHT22;58294;42.988;20.338;2023-03-12T03:56:55;153.60;2252.80
70593;DHT22;58294;42.988;20.338;2023-03-12T03:59:20;128.90;2252.80
70593;DHT22;58294;42.988;20.338;2023-03-12T04:01:46;128.90;2252.80
70593;DHT22;58294;42.988;20.338;2023-03-12T04:04:12;128.90;2252.80
70593;DHT22;58294;42.988;20.338;2023-03-12T04:06:37;128.90;2252.80
70593;DHT22;58294;42.988;20.338;2023-03-12T04:09:03;128.90;2252.80
70593;DHT22;58294;42.988;20.338;2023-03-12T04:11:29;128.90;2252.80
70593;DHT22;58294;42.988;20.338;2023-03-12T04:13:55;128.90;2252.80
70593;DHT22;58294;42.988;20.338;2023-03-12T04:16:21;153.60;2252.80
70593;DHT22;58294;42.988;20.338;2023-03-12T04:18:47;128.90;2252.80
70593;DHT22;58294;42.988;20.338;2023-03-12T04:21:12;128.90;2252.80
70593;DHT22;58294;42.988;20.338;2023-03-12T04:23:38;153.60;2252.80
70593;DHT22;58294;42.988;20.338;2023-03-12T04:26:05;153.60;2252.80
70593;DHT22;58294;42.988;20.338;2023-03-12T04:28:30;153.60;2252.80
70593;DHT22;58294;42.988;20.338;2023-03-12T04:30:57;153.60;2252.80
70593;DHT22;58294;42.988;20.338;2023-03-12T04:33:29;153.60;2252.80
70593;DHT22;58294;42.988;20.338;2023-03-12T04:35:55;153.60;2252.80
70593;DHT22;58294;42.988;20.338;2023-03-12T04:38:23;153.60;2252.80
70593;DHT22;58294;42.988;20.338;2023-03-12T04:41:02;153.60;2252.80
70593;DHT22;58294;42.988;20.338;2023-03-12T04:43:28;153.60;2252.80
70593;DHT22;58294;42.988;20.338;2023-03-12T04:45:54;128.90;2252.80
70593;DHT22;58294;42.988;20.338;2023-03-12T04:48:20;153.60;2252.80
70593;DHT22;58294;42.988;20.338;2023-03-12T04:50:46;153.60;2252.80
70593;DHT22;58294;42.988;20.338;2023-03-12T04:53:11;153.60;2252.80
70593;DHT22;58294;42.988;20.338;2023-03-12T04:55:37;153.60;2252.80
70593;DHT22;58294;42.988;20.338;2023-03-12T04:58:02;153.60;2252.80
70593;DHT22;58294;42.988;20.338;2023-03-12T05:00:28;153.60;2252.80
70593;DHT22;58294;42.988;20.338;2023-03-12T05:02:54;153.60;2252.80
70593;DHT22;58294;42.988;20.338;2023-03-12T05:05:19;153.60;2252.80
70593;DHT22;58294;42.988;20.338;2023-03-12T05:07:45;153.60;2252.80
70593;DHT22;58294;42.988;20.338;2023-03-12T05:10:11;153.60;2252.80
70593;DHT22;58294;42.988;20.338;2023-03-12T05:12:36;153.60;2252.80
70593;DHT22;58294;42.988;20.338;2023-03-12T05:15:02;153.60;2252.80
70593;DHT22;58294;42.988;20.338;2023-03-12T05:17:27;153.60;2252.80
70593;DHT22;58294;42.988;20.338;2023-03-12T05:19:53;153.60;2252.80
70593;DHT22;58294;42.988;20.338;2023-03-12T05:22:18;153.60;2252.80
70593;DHT22;58294;42.988;20.338;2023-03-12T05:24:44;153.60;2252.80
70593;DHT22;58294;42.988;20.338;2023-03-12T05:27:10;153.60;2252.80
70593;DHT22;58294;42.988;20.338;2023-03-12T05:29:35;153.60;2252.80
70593;DHT22;58294;42.988;20.338;2023-03-12T05:32:01;153.60;2252.80
70593;DHT22;58294;42.988;20.338;2023-03-12T05:34:27;153.60;2252.80
70593;DHT22;58294;42.988;20.338;2023-03-12T05:36:55;153.60;2252.80
70593;DHT22;58294;42.988;20.338;2023-03-12T05:39:22;153.60;2252.80
70593;DHT22;58294;42.988;20.338;2023-03-12T05:41:47;153.70;2252.80
70593;DHT22;58294;42.988;20.338;2023-03-12T05:44:13;153.70;2252.80
70593;DHT22;58294;42.988;20.338;2023-03-12T05:46:40;153.70;2252.80
70593;DHT22;58294;42.988;20.338;2023-03-12T05:49:07;153.70;2252.80
70593;DHT22;58294;42.988;20.338;2023-03-12T05:51:32;153.80;2252.80
70593;DHT22;58294;42.988;20.338;2023-03-12T05:53:58;153.80;2252.80
70593;DHT22;58294;42.988;20.338;2023-03-12T05:56:24;153.80;2252.80
70593;DHT22;58294;42.988;20.338;2023-03-12T05:58:49;153.80;2252.80
70593;DHT22;58294;42.988;20.338;2023-03-12T06:01:16;153.90;2252.80
70593;DHT22;58294;42.988;20.338;2023-03-12T06:03:42;153.90;2252.80
70593;DHT22;58294;42.988;20.338;2023-03-12T06:06:08;153.90;2252.80
70593;DHT22;58294;42.988;20.338;2023-03-12T06:08:34;153.90;2252.80
70593;DHT22;58294;42.988;20.338;2023-03-12T06:10:59;154.00;2252.80
70593;DHT22;58294;42.988;20.338;2023-03-12T06:13:25;154.00;2252.80
70593;DHT22;58294;42.988;20.338;2023-03-12T06:15:52;154.00;2252.80
70593;DHT22;58294;42.988;20.338;2023-03-12T06:18:18;154.00;2252.80
70593;DHT22;58294;42.988;20.338;2023-03-12T06:20:44;154.00;2252.80
70593;DHT22;58294;42.988;20.338;2023-03-12T06:23:09;154.10;2252.80
70593;DHT22;58294;42.988;20.338;2023-03-12T06:25:35;154.20;2252.80
70593;DHT22;58294;42.988;20.338;2023-03-12T06:28:01;154.20;2252.80
70593;DHT22;58294;42.988;20.338;2023-03-12T06:30:27;154.20;2252.80
70593;DHT22;58294;42.988;20.338;2023-03-12T06:32:52;154.20;2252.80
70593;DHT22;58294;42.988;20.338;2023-03-12T06:35:18;154.30;2252.80
70593;DHT22;58294;42.988;20.338;2023-03-12T06:37:44;154.30;2252.80
70593;DHT22;58294;42.988;20.338;2023-03-12T06:40:10;154.30;2252.80
70593;DHT22;58294;42.988;20.338;2023-03-12T06:42:37;154.40;2252.80
70593;DHT22;58294;42.988;20.338;2023-03-12T06:45:03;154.40;2252.80
70593;DHT22;58294;42.988;20.338;2023-03-12T06:47:29;154.40;2252.80
70593;DHT22;58294;42.988;20.338;2023-03-12T06:49:54;154.50;2252.80
70593;DHT22;58294;42.988;20.338;2023-03-12T06:52:20;179.20;2252.80
70593;DHT22;58294;42.988;20.338;2023-03-12T06:54:45;179.20;2252.80
70593;DHT22;58294;42.988;20.338;2023-03-12T06:57:11;179.20;2252.80
70593;DHT22;58294;42.988;20.338;2023-03-12T06:59:36;179.20;2252.80
70593;DHT22;58294;42.988;20.338;2023-03-12T07:02:02;179.20;2252.80
70593;DHT22;58294;42.988;20.338;2023-03-12T07:04:28;179.30;2252.80
70593;DHT22;58294;42.988;20.338;2023-03-12T07:06:53;179.30;2252.80
70593;DHT22;58294;42.988;20.338;2023-03-12T07:09:19;179.30;2252.80
70593;DHT22;58294;42.988;20.338;2023-03-12T07:11:44;179.40;2252.80
70593;DHT22;58294;42.988;20.338;2023-03-12T07:14:10;179.40;2252.80
70593;DHT22;58294;42.988;20.338;2023-03-12T07:16:36;179.40;2252.80
70593;DHT22;58294;42.988;20.338;2023-03-12T07:19:01;179.30;2252.80
70593;DHT22;58294;42.988;20.338;2023-03-12T07:21:28;179.30;2252.80
70593;DHT22;58294;42.988;20.338;2023-03-12T07:23:53;179.40;2252.80
70593;DHT22;58294;42.988;20.338;2023-03-12T07:26:19;179.50;2252.80
70593;DHT22;58294;42.988;20.338;2023-03-12T07:28:45;179.50;2252.80
70593;DHT22;58294;42.988;20.338;2023-03-12T07:31:10;179.60;2252.80
70593;DHT22;58294;42.988;20.338;2023-03-12T07:33:36;179.70;2252.80
70593;DHT22;58294;42.988;20.338;2023-03-12T07:36:02;179.80;2252.80
70593;DHT22;58294;42.988;20.338;2023-03-12T07:38:28;179.80;2252.80
70593;DHT22;58294;42.988;20.338;2023-03-12T07:40:54;179.80;2252.80
70593;DHT22;58294;42.988;20.338;2023-03-12T07:43:20;179.80;2252.80
70593;DHT22;58294;42.988;20.338;2023-03-12T07:45:45;179.90;2252.80
70593;DHT22;58294;42.988;20.338;2023-03-12T07:48:11;180.00;2252.80
70593;DHT22;58294;42.988;20.338;2023-03-12T07:50:37;180.00;2252.80
70593;DHT22;58294;42.988;20.338;2023-03-12T07:53:03;180.00;2252.80
70593;DHT22;58294;42.988;20.338;2023-03-12T07:55:29;180.00;2252.80
70593;DHT22;58294;42.988;20.338;2023-03-12T07:57:55;179.90;2252.80
70593;DHT22;58294;42.988;20.338;2023-03-12T08:00:22;179.80;2252.80
70593;DHT22;58294;42.988;20.338;2023-03-12T08:02:48;179.90;2252.80
70593;DHT22;58294;42.988;20.338;2023-03-12T08:05:14;180.00;2252.80
70593;DHT22;58294;42.988;20.338;2023-03-12T08:07:39;180.10;2252.80
70593;DHT22;58294;42.988;20.338;2023-03-12T08:10:05;204.80;2252.80
70593;DHT22;58294;42.988;20.338;2023-03-12T08:12:32;204.90;2252.80
70593;DHT22;58294;42.988;20.338;2023-03-12T08:14:58;204.90;2252.80
70593;DHT22;58294;42.988;20.338;2023-03-12T08:17:23;204.80;2252.80
70593;DHT22;58294;42.988;20.338;2023-03-12T08:19:49;204.80;2252.80
70593;DHT22;58294;42.988;20.338;2023-03-12T08:22:15;204.80;2252.80
70593;DHT22;58294;42.988;20.338;2023-03-12T08:24:40;180.10;2252.80
70593;DHT22;58294;42.988;20.338;2023-03-12T08:27:06;180.00;2252.80
70593;DHT22;58294;42.988;20.338;2023-03-12T08:29:31;204.80;2252.80
70593;DHT22;58294;42.988;20.338;2023-03-12T08:31:58;205.00;2252.80
70593;DHT22;58294;42.988;20.338;2023-03-12T08:34:23;205.30;2252.80
70593;DHT22;58294;42.988;20.338;2023-03-12T08:36:49;205.50;2252.80
70593;DHT22;58294;42.988;20.338;2023-03-12T08:39:15;230.40;2252.80
70593;DHT22;58294;42.988;20.338;2023-03-12T08:41:40;230.70;2252.80
70593;DHT22;58294;42.988;20.338;2023-03-12T08:44:06;230.90;2252.80
70593;DHT22;58294;42.988;20.338;2023-03-12T08:46:31;231.10;2252.80
70593;DHT22;58294;42.988;20.338;2023-03-12T08:48:57;231.20;2252.80
70593;DHT22;58294;42.988;20.338;2023-03-12T08:51:22;231.30;2252.80
70593;DHT22;58294;42.988;20.338;2023-03-12T08:53:48;231.30;2252.80
70593;DHT22;58294;42.988;20.338;2023-03-12T08:56:13;231.20;2252.80
70593;DHT22;58294;42.988;20.338;2023-03-12T08:58:39;231.20;2252.80
70593;DHT22;58294;42.988;20.338;2023-03-12T09:01:11;231.10;2252.80
70593;DHT22;58294;42.988;20.338;2023-03-12T09:03:37;231.00;2252.80
70593;DHT22;58294;42.988;20.338;2023-03-12T09:06:07;231.20;2252.80
70593;DHT22;58294;42.988;20.338;2023-03-12T09:08:37;256.00;2252.80
70593;DHT22;58294;42.988;20.338;2023-03-12T09:11:03;256.30;2252.80
70593;DHT22;58294;42.988;20.338;2023-03-12T09:13:29;256.10;2252.80
70593;DHT22;58294;42.988;20.338;2023-03-12T09:15:58;256.00;2252.80
70593;DHT22;58294;42.988;20.338;2023-03-12T09:18:24;256.00;2252.80
70593;DHT22;58294;42.988;20.338;2023-03-12T09:20:50;231.30;2252.80
70593;DHT22;58294;42.988;20.338;2023-03-12T09:23:15;231.00;2252.80
70593;DHT22;58294;42.988;20.338;2023-03-12T09:25:44;230.80;2252.80
70593;DHT22;58294;42.988;20.338;2023-03-12T09:28:09;230.60;2252.80
70593;DHT22;58294;42.988;20.338;2023-03-12T09:30:35;230.60;2252.80
70593;DHT22;58294;42.988;20.338;2023-03-12T09:33:00;230.60;2252.80
70593;DHT22;58294;42.988;20.338;2023-03-12T09:35:26;230.50;2252.80
70593;DHT22;58294;42.988;20.338;2023-03-12T09:37:51;230.60;2252.80
70593;DHT22;58294;42.988;20.338;2023-03-12T09:40:19;230.60;2252.80
70593;DHT22;58294;42.988;20.338;2023-03-12T09:42:46;230.70;2252.80
70593;DHT22;58294;42.988;20.338;2023-03-12T09:45:19;230.80;2252.80
70593;DHT22;58294;42.988;20.338;2023-03-12T09:47:46;230.90;2252.80
70593;DHT22;58294;42.988;20.338;2023-03-12T09:52:50;231.10;2252.80
70593;DHT22;58294;42.988;20.338;2023-03-12T09:55:18;231.00;2252.80
70593;DHT22;58294;42.988;20.338;2023-03-12T09:57:44;231.00;2252.80
70593;DHT22;58294;42.988;20.338;2023-03-12T10:00:14;231.10;2252.80
70593;DHT22;58294;42.988;20.338;2023-03-12T10:05:34;231.20;2252.80
70593;DHT22;58294;42.988;20.338;2023-03-12T10:10:42;256.30;2252.80
70593;DHT22;58294;42.988;20.338;2023-03-12T10:13:22;256.30;2252.80
70593;DHT22;58294;42.988;20.338;2023-03-12T10:21:05;281.80;2278.40
70593;DHT22;58294;42.988;20.338;2023-03-12T10:31:04;358.70;2329.60
70593;DHT22;58294;42.988;20.338;2023-03-12T10:33:37;384.10;2329.60
70593;DHT22;58294;42.988;20.338;2023-03-12T10:36:38;384.00;2329.60
70593;DHT22;58294;42.988;20.338;2023-03-12T10:38:56;359.10;2022.40
70593;DHT22;58294;42.988;20.338;2023-03-12T10:41:23;359.10;2329.60
70593;DHT22;58294;42.988;20.338;2023-03-12T10:43:49;359.10;2329.60
70593;DHT22;58294;42.988;20.338;2023-03-12T10:54:37;384.00;2329.60
70593;DHT22;58294;42.988;20.338;2023-03-12T10:57:05;384.10;2201.60
70593;DHT22;58294;42.988;20.338;2023-03-12T10:59:32;409.60;2355.20
70593;DHT22;58294;42.988;20.338;2023-03-12T11:01:59;436.00;2355.20
70593;DHT22;58294;42.988;20.338;2023-03-12T11:04:26;461.60;2380.80
70593;DHT22;58294;42.988;20.338;2023-03-12T11:10:02;436.00;2355.20
70593;DHT22;58294;42.988;20.338;2023-03-12T11:12:29;460.90;2380.80
70593;DHT22;58294;42.988;20.338;2023-03-12T11:14:56;435.40;2355.20
70593;DHT22;58294;42.988;20.338;2023-03-12T11:17:22;435.30;1766.40
70593;DHT22;58294;42.988;20.338;2023-03-12T11:19:48;410.50;2355.20
70593;DHT22;58294;42.988;20.338;2023-03-12T11:25:00;461.30;2380.80
70593;DHT22;58294;42.988;20.338;2023-03-12T11:27:31;461.50;2380.80
70593;DHT22;58294;42.988;20.338;2023-03-12T11:29:59;460.80;2124.80
70593;DHT22;58294;42.988;20.338;2023-03-12T11:32:31;435.40;2048.00
70593;DHT22;58294;42.988;20.338;2023-03-12T11:34:57;409.80;2022.40
70593;DHT22;58294;42.988;20.338;2023-03-12T11:45:07;409.70;2278.40
70593;DHT22;58294;42.988;20.338;2023-03-12T11:50:15;359.10;2329.60
70593;DHT22;58294;42.988;20.338;2023-03-12T12:00:24;410.30;2355.20
70593;DHT22;58294;42.988;20.338;2023-03-12T12:10:30;460.90;2380.80
70593;DHT22;58294;42.988;20.338;2023-03-12T12:35:52;333.30;2329.60
70593;DHT22;58294;42.988;20.338;2023-03-12T12:38:21;332.90;1792.00
70593;DHT22;58294;42.988;20.338;2023-03-12T12:40:54;308.10;2201.60
70593;DHT22;58294;42.988;20.338;2023-03-12T12:45:47;307.60;2304.00
70593;DHT22;58294;42.988;20.338;2023-03-12T12:50:39;307.20;2304.00
70593;DHT22;58294;42.988;20.338;2023-03-12T12:55:36;282.20;2201.60
70593;DHT22;58294;42.988;20.338;2023-03-12T12:58:10;282.20;1612.80
70593;DHT22;58294;42.988;20.338;2023-03-12T13:00:47;282.00;2227.20
70593;DHT22;58294;42.988;20.338;2023-03-12T13:03:15;281.90;1715.20
70593;DHT22;58294;42.988;20.338;2023-03-12T13:13:44;281.80;2278.40
70593;DHT22;58294;42.988;20.338;2023-03-12T13:18:58;281.60;2278.40
70593;DHT22;58294;42.988;20.338;2023-03-12T13:21:27;256.80;1894.40
70593;DHT22;58294;42.988;20.338;2023-03-12T13:23:54;256.70;2252.80
70593;DHT22;58294;42.988;20.338;2023-03-12T13:33:48;256.60;2227.20
70593;DHT22;58294;42.988;20.338;2023-03-12T13:43:59;256.40;2073.60
70593;DHT22;58294;42.988;20.338;2023-03-12T13:48:53;256.40;2252.80
70593;DHT22;58294;42.988;20.338;2023-03-12T13:51:22;256.30;2252.80
70593;DHT22;58294;42.988;20.338;2023-03-12T13:53:49;256.30;2252.80
70593;DHT22;58294;42.988;20.338;2023-03-12T13:56:16;256.20;2252.80
70593;DHT22;58294;42.988;20.338;2023-03-12T13:58:53;256.10;2252.80
70593;DHT22;58294;42.988;20.338;2023-03-12T14:01:20;256.20;2252.80
70593;DHT22;58294;42.988;20.338;2023-03-12T14:03:47;256.20;2252.80
70593;DHT22;58294;42.988;20.338;2023-03-12T14:06:17;256.10;2252.80
70593;DHT22;58294;42.988;20.338;2023-03-12T14:16:36;231.30;2252.80
70593;DHT22;58294;42.988;20.338;2023-03-12T14:19:04;256.00;2252.80
70593;DHT22;58294;42.988;20.338;2023-03-12T14:21:34;231.30;2099.20
70593;DHT22;58294;42.988;20.338;2023-03-12T14:24:02;231.20;2252.80
70593;DHT22;58294;42.988;20.338;2023-03-12T14:26:34;231.20;2252.80
70593;DHT22;58294;42.988;20.338;2023-03-12T14:29:03;231.20;2252.80
70593;DHT22;58294;42.988;20.338;2023-03-12T14:31:30;231.10;2252.80
70593;DHT22;58294;42.988;20.338;2023-03-12T14:33:58;231.20;2252.80
70593;DHT22;58294;42.988;20.338;2023-03-12T14:39:26;231.20;2227.20
70593;DHT22;58294;42.988;20.338;2023-03-12T14:41:59;231.10;1996.80
70593;DHT22;58294;42.988;20.338;2023-03-12T14:44:26;231.00;2252.80
70593;DHT22;58294;42.988;20.338;2023-03-12T14:47:00;231.00;2201.60
70593;DHT22;58294;42.988;20.338;2023-03-12T14:49:27;231.10;2252.80
70593;DHT22;58294;42.988;20.338;2023-03-12T14:51:53;231.10;2252.80
70593;DHT22;58294;42.988;20.338;2023-03-12T14:54:19;231.10;2252.80
70593;DHT22;58294;42.988;20.338;2023-03-12T14:56:45;231.10;2252.80
70593;DHT22;58294;42.988;20.338;2023-03-12T14:59:21;231.10;2252.80
70593;DHT22;58294;42.988;20.338;2023-03-12T15:01:47;231.00;2048.00
70593;DHT22;58294;42.988;20.338;2023-03-12T15:04:20;230.90;2252.80
70593;DHT22;58294;42.988;20.338;2023-03-12T15:06:51;230.90;2252.80
70593;DHT22;58294;42.988;20.338;2023-03-12T15:09:22;230.80;2099.20
70593;DHT22;58294;42.988;20.338;2023-03-12T15:11:51;230.80;2252.80
70593;DHT22;58294;42.988;20.338;2023-03-12T15:14:18;230.80;2252.80
70593;DHT22;58294;42.988;20.338;2023-03-12T15:16:45;230.80;2252.80
70593;DHT22;58294;42.988;20.338;2023-03-12T15:19:11;230.80;2252.80
70593;DHT22;58294;42.988;20.338;2023-03-12T15:21:37;230.80;2252.80
70593;DHT22;58294;42.988;20.338;2023-03-12T15:24:02;230.90;2252.80
70593;DHT22;58294;42.988;20.338;2023-03-12T15:26:30;230.80;2227.20
70593;DHT22;58294;42.988;20.338;2023-03-12T15:31:23;230.80;2252.80
70593;DHT22;58294;42.988;20.338;2023-03-12T15:34:01;230.90;2252.80
70593;DHT22;58294;42.988;20.338;2023-03-12T15:36:28;230.80;2252.80
70593;DHT22;58294;42.988;20.338;2023-03-12T15:38:59;230.80;2252.80
70593;DHT22;58294;42.988;20.338;2023-03-12T15:41:43;230.80;2252.80
70593;DHT22;58294;42.988;20.338;2023-03-12T15:44:19;230.80;2252.80
70593;DHT22;58294;42.988;20.338;2023-03-12T15:46:46;230.70;2252.80
70593;DHT22;58294;42.988;20.338;2023-03-12T15:49:17;230.70;2252.80
70593;DHT22;58294;42.988;20.338;2023-03-12T15:51:44;230.80;2252.80
70593;DHT22;58294;42.988;20.338;2023-03-12T15:54:25;230.80;2252.80
70593;DHT22;58294;42.988;20.338;2023-03-12T15:56:51;230.70;2252.80
70593;DHT22;58294;42.988;20.338;2023-03-12T15:59:24;230.70;2252.80
70593;DHT22;58294;42.988;20.338;2023-03-12T16:01:51;230.70;2252.80
70593;DHT22;58294;42.988;20.338;2023-03-12T16:04:17;230.60;2176.00
70593;DHT22;58294;42.988;20.338;2023-03-12T16:06:43;230.60;2252.80
70593;DHT22;58294;42.988;20.338;2023-03-12T16:09:13;230.60;2252.80
70593;DHT22;58294;42.988;20.338;2023-03-12T16:11:40;230.60;2252.80
70593;DHT22;58294;42.988;20.338;2023-03-12T16:14:07;230.60;2252.80
70593;DHT22;58294;42.988;20.338;2023-03-12T16:16:37;230.60;2252.80
70593;DHT22;58294;42.988;20.338;2023-03-12T16:19:08;230.60;2252.80
70593;DHT22;58294;42.988;20.338;2023-03-12T16:21:34;230.60;2252.80
70593;DHT22;58294;42.988;20.338;2023-03-12T16:23:59;230.50;2252.80
70593;DHT22;58294;42.988;20.338;2023-03-12T16:26:25;230.50;2252.80
70593;DHT22;58294;42.988;20.338;2023-03-12T16:28:51;230.50;2252.80
70593;DHT22;58294;42.988;20.338;2023-03-12T16:31:16;230.50;2252.80
70593;DHT22;58294;42.988;20.338;2023-03-12T16:33:42;230.40;2252.80
70593;DHT22;58294;42.988;20.338;2023-03-12T16:36:13;230.40;2252.80
70593;DHT22;58294;42.988;20.338;2023-03-12T16:38:40;230.40;2252.80
70593;DHT22;58294;42.988;20.338;2023-03-12T16:41:08;230.40;2252.80
70593;DHT22;58294;42.988;20.338;2023-03-12T16:43:34;230.40;2252.80
70593;DHT22;58294;42.988;20.338;2023-03-12T16:46:01;205.70;2252.80
70593;DHT22;58294;42.988;20.338;2023-03-12T16:48:26;205.70;2252.80
70593;DHT22;58294;42.988;20.338;2023-03-12T16:50:53;205.70;2252.80
70593;DHT22;58294;42.988;20.338;2023-03-12T16:53:19;205.60;2252.80